createdAt,value
2023-03-16T00:00:14.023Z,5.72
2023-03-16T00:02:44.997Z,5.73
2023-03-16T00:05:13.728Z,5.73
2023-03-16T00:07:43.608Z,5.73
2023-03-16T00:10:12.686Z,5.72
2023-03-16T00:12:44.010Z,5.68
2023-03-16T00:15:14.017Z,5.68
2023-03-16T00:17:48.517Z,5.69
2023-03-16T00:20:23.203Z,5.71
2023-03-16T00:22:51.599Z,5.73
2023-03-16T00:25:19.738Z,5.75
2023-03-16T00:27:48.609Z,5.78
2023-03-16T00:30:17.277Z,5.80
2023-03-16T00:32:46.131Z,5.82
2023-03-16T00:35:15.934Z,5.84
2023-03-16T00:37:44.604Z,5.86
2023-03-16T00:40:14.217Z,5.87
2023-03-16T00:42:42.526Z,5.89
2023-03-16T00:45:18.099Z,5.90
2023-03-16T00:47:46.909Z,5.91
2023-03-16T00:50:15.780Z,5.91
2023-03-16T00:52:44.383Z,5.91
2023-03-16T00:55:13.432Z,5.92
2023-03-16T00:57:45.088Z,5.94
2023-03-16T01:00:16.896Z,5.96
2023-03-16T01:02:50.269Z,5.96
2023-03-16T01:05:20.379Z,5.96
2023-03-16T01:07:49.084Z,5.95
2023-03-16T01:10:17.755Z,5.96
2023-03-16T01:12:47.037Z,5.97
2023-03-16T01:15:16.267Z,5.93
2023-03-16T01:17:44.589Z,5.89
2023-03-16T01:20:15.784Z,5.85
2023-03-16T01:22:45.418Z,5.82
2023-03-16T01:25:14.046Z,5.82
2023-03-16T01:27:43.514Z,5.84
2023-03-16T01:30:13.016Z,5.84
2023-03-16T01:32:42.156Z,5.84
2023-03-16T01:35:13.964Z,5.85
2023-03-16T01:37:42.481Z,5.87
2023-03-16T01:40:17.015Z,5.87
2023-03-16T01:42:47.421Z,5.86
2023-03-16T01:46:04.501Z,5.88
2023-03-16T01:48:51.861Z,5.90
2023-03-16T01:52:04.471Z,5.92
2023-03-16T01:55:15.542Z,5.92
2023-03-16T01:57:46.148Z,5.91
2023-03-16T02:00:19.973Z,5.92
2023-03-16T02:03:17.001Z,5.92
2023-03-16T02:06:13.137Z,5.93
2023-03-16T02:08:45.488Z,5.95
2023-03-16T02:11:18.252Z,5.97
2023-03-16T02:14:19.045Z,6.00
2023-03-16T02:16:47.851Z,5.98
2023-03-16T02:19:32.831Z,5.98
2023-03-16T02:22:06.509Z,6.00
2023-03-16T02:24:36.666Z,6.02
2023-03-16T02:27:10.554Z,6.05
2023-03-16T02:29:55.424Z,6.08
2023-03-16T02:32:24.766Z,6.08
2023-03-16T02:34:53.032Z,6.11
2023-03-16T02:37:22.794Z,6.12
2023-03-16T02:39:51.440Z,6.13
2023-03-16T02:42:22.104Z,6.13
2023-03-16T02:44:54.428Z,6.10
2023-03-16T02:47:35.298Z,6.09
2023-03-16T02:50:06.778Z,6.11
2023-03-16T02:52:36.002Z,6.11
2023-03-16T02:55:05.872Z,6.13
2023-03-16T02:57:35.090Z,6.14
2023-03-16T03:00:19.393Z,6.15
2023-03-16T03:02:50.271Z,6.17
2023-03-16T03:05:18.471Z,6.19
2023-03-16T03:07:49.396Z,6.22
2023-03-16T03:10:18.126Z,6.23
2023-03-16T03:12:49.658Z,6.24
2023-03-16T03:15:20.206Z,6.24
2023-03-16T03:18:15.493Z,6.24
2023-03-16T03:20:43.705Z,6.24
2023-03-16T03:23:11.952Z,6.24
2023-03-16T03:25:43.659Z,6.24
2023-03-16T03:28:11.956Z,6.22
2023-03-16T03:30:40.588Z,6.22
2023-03-16T03:33:08.822Z,6.21
2023-03-16T03:35:38.860Z,6.21
2023-03-16T03:38:08.292Z,6.19
2023-03-16T03:40:37.438Z,6.16
2023-03-16T03:43:06.486Z,6.15
2023-03-16T03:45:37.645Z,6.14
2023-03-16T03:48:07.475Z,6.14
2023-03-16T03:50:38.522Z,6.14
2023-03-16T03:53:26.321Z,6.14
2023-03-16T03:56:11.856Z,6.15
2023-03-16T03:58:41.342Z,6.15
2023-03-16T04:01:10.070Z,6.14
2023-03-16T04:03:38.921Z,6.14
2023-03-16T04:06:08.282Z,6.14
2023-03-16T04:08:37.386Z,6.13
2023-03-16T04:11:12.846Z,6.12
2023-03-16T04:13:41.318Z,6.09
2023-03-16T04:16:10.598Z,6.08
2023-03-16T04:18:45.313Z,6.06
2023-03-16T04:21:17.701Z,6.03
2023-03-16T04:23:48.562Z,6.02
2023-03-16T04:26:18.051Z,6.01
2023-03-16T04:28:47.555Z,5.99
2023-03-16T04:31:20.027Z,5.98
2023-03-16T04:33:50.876Z,5.98
2023-03-16T04:36:19.413Z,6.00
2023-03-16T04:38:49.940Z,6.00
2023-03-16T04:41:18.673Z,5.98
2023-03-16T04:43:55.467Z,5.98
2023-03-16T04:46:26.893Z,5.97
2023-03-16T04:48:58.605Z,5.94
2023-03-16T04:51:28.743Z,5.92
2023-03-16T04:54:09.736Z,5.92
2023-03-16T04:56:42.808Z,5.93
2023-03-16T04:59:20.642Z,5.93
2023-03-16T05:01:54.491Z,5.94
2023-03-16T05:04:24.771Z,5.94
2023-03-16T05:06:53.204Z,5.93
2023-03-16T05:09:26.002Z,5.95
2023-03-16T05:11:54.246Z,5.94
2023-03-16T05:14:25.547Z,5.91
2023-03-16T05:17:10.577Z,5.90
2023-03-16T05:19:40.122Z,5.91
2023-03-16T05:22:08.957Z,5.93
2023-03-16T05:24:39.447Z,5.93
2023-03-16T05:27:08.582Z,5.94
2023-03-16T05:29:37.882Z,5.95
2023-03-16T05:32:06.745Z,5.95
2023-03-16T05:34:37.131Z,5.98
2023-03-16T05:37:06.335Z,5.97
2023-03-16T05:39:35.698Z,5.97
2023-03-16T05:42:05.980Z,6.00
2023-03-16T05:44:44.966Z,5.99
2023-03-16T05:47:21.166Z,5.98
2023-03-16T05:49:53.749Z,5.95
2023-03-16T05:52:34.856Z,5.91
2023-03-16T05:55:09.750Z,5.89
2023-03-16T05:57:39.401Z,5.87
2023-03-16T06:00:12.669Z,5.85
2023-03-16T06:02:44.192Z,5.80
2023-03-16T06:05:12.620Z,5.77
2023-03-16T06:07:42.946Z,5.76
2023-03-16T06:10:17.787Z,5.76
2023-03-16T06:12:47.070Z,5.76
2023-03-16T06:15:15.287Z,5.73
2023-03-16T06:17:48.936Z,5.67
2023-03-16T06:20:18.041Z,5.60
2023-03-16T06:22:46.660Z,5.59
2023-03-16T06:25:16.498Z,5.58
2023-03-16T06:27:47.878Z,5.54
2023-03-16T06:30:18.551Z,5.49
2023-03-16T06:32:48.446Z,5.45
2023-03-16T06:35:16.672Z,5.43
2023-03-16T06:38:01.095Z,5.40
2023-03-16T06:40:43.778Z,5.37
2023-03-16T06:43:13.936Z,5.33
2023-03-16T06:45:46.684Z,5.30
2023-03-16T06:48:15.342Z,5.28
2023-03-16T06:50:46.780Z,5.28
2023-03-16T06:53:16.272Z,5.23
2023-03-16T06:55:45.095Z,5.18
2023-03-16T06:58:14.113Z,5.14
2023-03-16T07:01:13.121Z,5.04
2023-03-16T07:03:42.094Z,4.97
2023-03-16T07:06:17.980Z,4.92
2023-03-16T07:08:46.338Z,4.84
2023-03-16T07:11:15.095Z,4.81
2023-03-16T07:13:44.447Z,4.79
2023-03-16T07:16:14.080Z,4.77
2023-03-16T07:18:45.262Z,4.76
2023-03-16T07:21:15.805Z,4.76
2023-03-16T07:23:44.896Z,4.77
2023-03-16T07:26:15.049Z,4.79
2023-03-16T07:28:50.889Z,4.77
2023-03-16T07:31:20.103Z,4.73
2023-03-16T07:33:48.497Z,4.72
2023-03-16T07:36:22.286Z,4.73
2023-03-16T07:38:55.308Z,4.72
2023-03-16T07:41:25.558Z,4.72
2023-03-16T07:43:54.938Z,4.72
2023-03-16T07:46:28.680Z,4.70
2023-03-16T07:48:57.101Z,4.69
2023-03-16T07:51:25.747Z,4.70
2023-03-16T07:53:54.404Z,4.70
2023-03-16T07:56:33.627Z,4.70
2023-03-16T07:59:14.476Z,4.68
2023-03-16T08:01:43.913Z,4.66
2023-03-16T08:04:12.656Z,4.62
2023-03-16T08:06:43.099Z,4.61
2023-03-16T08:09:11.909Z,4.62
2023-03-16T08:11:41.806Z,4.63
2023-03-16T08:14:11.681Z,4.66
2023-03-16T08:16:58.413Z,4.69
2023-03-16T08:19:31.015Z,4.73
2023-03-16T08:22:02.075Z,4.76
2023-03-16T08:24:36.648Z,4.77
2023-03-16T08:27:06.141Z,4.80
2023-03-16T08:29:35.259Z,4.80
2023-03-16T08:32:04.460Z,4.80
2023-03-16T08:34:40.090Z,4.83
2023-03-16T08:37:09.955Z,4.88
2023-03-16T08:39:44.654Z,4.94
2023-03-16T08:42:16.874Z,4.99
2023-03-16T08:44:53.435Z,5.03
2023-03-16T08:47:23.131Z,5.07
2023-03-16T08:49:52.352Z,5.11
2023-03-16T08:52:22.973Z,5.14
2023-03-16T08:55:02.369Z,5.17
2023-03-16T08:57:33.520Z,5.19
2023-03-16T09:00:01.920Z,5.16
2023-03-16T09:02:31.648Z,5.13
2023-03-16T09:04:59.877Z,5.11
2023-03-16T09:07:28.357Z,5.12
2023-03-16T09:10:05.962Z,5.13
2023-03-16T09:12:36.311Z,5.13
2023-03-16T09:15:06.776Z,5.12
2023-03-16T09:17:39.407Z,5.10
2023-03-16T09:20:21.832Z,5.10
2023-03-16T09:22:51.561Z,5.11
2023-03-16T09:25:20.911Z,5.10
2023-03-16T09:27:50.896Z,5.09
2023-03-16T09:30:19.972Z,5.09
2023-03-16T09:32:50.721Z,5.08
2023-03-16T09:35:19.781Z,5.08
2023-03-16T09:38:05.162Z,5.07
2023-03-16T09:40:36.245Z,5.09
2023-03-16T09:43:26.129Z,5.13
2023-03-16T09:46:31.352Z,5.17
2023-03-16T09:48:59.556Z,5.20
2023-03-16T09:51:47.136Z,5.18
2023-03-16T09:54:27.786Z,5.19
2023-03-16T09:56:56.340Z,5.24
2023-03-16T09:59:24.850Z,5.30
2023-03-16T10:02:15.820Z,5.35
2023-03-16T10:05:08.098Z,5.41
2023-03-16T10:08:03.920Z,5.46
2023-03-16T10:10:49.448Z,5.49
2023-03-16T10:13:22.255Z,5.51
2023-03-16T10:15:51.476Z,5.51
2023-03-16T10:18:28.824Z,5.54
2023-03-16T10:20:58.149Z,5.59
2023-03-16T10:23:26.563Z,5.64
2023-03-16T10:25:55.584Z,5.66
2023-03-16T10:28:28.532Z,5.69
2023-03-16T10:30:59.373Z,5.74
2023-03-16T10:33:34.680Z,5.78
2023-03-16T10:36:34.984Z,5.78
2023-03-16T10:39:05.436Z,5.77
2023-03-16T10:41:38.279Z,5.78
2023-03-16T10:44:14.091Z,5.75
2023-03-16T10:46:51.241Z,5.72
2023-03-16T10:49:36.575Z,5.71
2023-03-16T10:52:12.117Z,5.71
2023-03-16T10:54:40.837Z,5.73
2023-03-16T10:57:25.468Z,5.76
2023-03-16T10:59:55.397Z,5.80
2023-03-16T11:02:31.990Z,5.82
2023-03-16T11:05:11.078Z,5.84
2023-03-16T11:07:58.823Z,5.86
2023-03-16T11:10:36.168Z,5.88
2023-03-16T11:13:09.288Z,5.88
2023-03-16T11:15:48.849Z,5.89
2023-03-16T11:18:36.838Z,5.89
2023-03-16T11:21:18.374Z,5.86
2023-03-16T11:23:49.910Z,5.82
2023-03-16T11:26:25.438Z,5.80
2023-03-16T11:29:02.290Z,5.79
2023-03-16T11:31:39.636Z,5.80
2023-03-16T11:34:16.318Z,5.79
2023-03-16T11:37:25.809Z,5.76
2023-03-16T11:40:17.305Z,5.75
2023-03-16T11:43:00.159Z,5.76
2023-03-16T11:45:43.322Z,5.76
2023-03-16T11:48:24.422Z,5.75
2023-03-16T11:51:08.680Z,5.72
2023-03-16T11:54:03.061Z,5.68
2023-03-16T11:56:35.596Z,5.68
2023-03-16T11:59:25.046Z,5.67
2023-03-16T12:02:15.390Z,5.65
2023-03-16T12:05:19.410Z,5.65
2023-03-16T12:07:51.981Z,5.64
2023-03-16T12:10:29.369Z,5.62
2023-03-16T12:13:31.112Z,5.58
2023-03-16T12:16:15.425Z,5.54
2023-03-16T12:18:49.820Z,5.55
2023-03-16T12:21:39.718Z,5.55
2023-03-16T12:24:14.631Z,5.52
2023-03-16T12:26:43.432Z,5.52
2023-03-16T12:29:37.892Z,5.52
2023-03-16T12:32:38.758Z,5.49
2023-03-16T12:35:47.681Z,5.46
2023-03-16T12:38:32.615Z,5.45
2023-03-16T12:41:46.492Z,5.45
2023-03-16T12:44:23.104Z,5.46
2023-03-16T12:47:02.165Z,5.48
2023-03-16T12:49:34.256Z,5.48
2023-03-16T12:52:10.104Z,5.46
2023-03-16T12:55:12.435Z,5.44
2023-03-16T12:57:42.620Z,5.43
2023-03-16T13:00:12.809Z,5.46
2023-03-16T13:02:49.690Z,5.48
2023-03-16T13:05:19.398Z,5.46
2023-03-16T13:07:50.075Z,5.46
2023-03-16T13:10:23.127Z,5.45
2023-03-16T13:12:52.009Z,5.45
2023-03-16T13:15:21.548Z,5.45
2023-03-16T13:18:11.649Z,5.44
2023-03-16T13:20:48.490Z,5.44
2023-03-16T13:23:26.092Z,5.44
2023-03-16T13:26:05.830Z,5.43
2023-03-16T13:28:36.590Z,5.43
2023-03-16T13:31:07.154Z,5.41
2023-03-16T13:33:37.601Z,5.41
2023-03-16T13:36:06.688Z,5.39
2023-03-16T13:38:37.733Z,5.36
2023-03-16T13:41:11.188Z,5.36
2023-03-16T13:43:44.395Z,5.34
2023-03-16T13:46:21.506Z,5.32
2023-03-16T13:48:50.562Z,5.34
2023-03-16T13:51:21.252Z,5.37
2023-03-16T13:53:51.607Z,5.39
2023-03-16T13:56:23.996Z,5.37
2023-03-16T13:58:53.939Z,5.33
2023-03-16T14:01:26.223Z,5.29
2023-03-16T14:04:13.925Z,5.26
2023-03-16T14:07:01.002Z,5.24
2023-03-16T14:09:34.657Z,5.22
2023-03-16T14:12:03.760Z,5.22
2023-03-16T14:14:41.550Z,5.22
2023-03-16T14:17:15.084Z,5.20
2023-03-16T14:19:51.981Z,5.20
2023-03-16T14:22:24.217Z,5.21
2023-03-16T14:24:54.861Z,5.19
2023-03-16T14:27:39.690Z,5.19
2023-03-16T14:30:15.078Z,5.17
2023-03-16T14:32:56.770Z,5.14
2023-03-16T14:35:28.433Z,5.16
2023-03-16T14:37:57.362Z,5.18
2023-03-16T14:40:27.329Z,5.15
2023-03-16T14:43:00.106Z,5.13
2023-03-16T14:45:34.954Z,5.11
2023-03-16T14:48:18.339Z,5.09
2023-03-16T14:50:52.783Z,5.07
2023-03-16T14:53:22.199Z,5.04
2023-03-16T14:55:54.170Z,5.04
2023-03-16T14:58:24.764Z,5.05
2023-03-16T15:00:53.920Z,5.05
2023-03-16T15:03:34.670Z,5.03
2023-03-16T15:06:03.306Z,5.05
2023-03-16T15:08:33.912Z,5.02
2023-03-16T15:11:06.052Z,4.97
2023-03-16T15:13:40.862Z,4.89
2023-03-16T15:16:11.697Z,4.86
2023-03-16T15:18:40.598Z,4.82
2023-03-16T15:21:14.801Z,4.80
2023-03-16T15:23:43.491Z,4.79
2023-03-16T15:26:14.344Z,4.80
2023-03-16T15:28:43.458Z,4.81
2023-03-16T15:31:16.195Z,4.82
2023-03-16T15:33:46.166Z,4.80
2023-03-16T15:36:16.696Z,4.75
2023-03-16T15:38:49.796Z,4.69
2023-03-16T15:41:18.618Z,4.68
2023-03-16T15:43:48.387Z,4.68
2023-03-16T15:46:18.073Z,4.68
2023-03-16T15:48:46.994Z,4.69
2023-03-16T15:51:27.134Z,4.71
2023-03-16T15:53:59.768Z,4.72
2023-03-16T15:56:53.780Z,4.70
2023-03-16T15:59:27.496Z,4.67
2023-03-16T16:01:58.398Z,4.65
2023-03-16T16:04:27.585Z,4.62
2023-03-16T16:06:57.613Z,4.58
2023-03-16T16:09:45.949Z,4.53
2023-03-16T16:12:53.864Z,4.52
2023-03-16T16:15:37.447Z,4.51
2023-03-16T16:18:32.062Z,4.52
2023-03-16T16:21:18.020Z,4.55
2023-03-16T16:23:48.096Z,4.55
2023-03-16T16:26:55.314Z,4.54
2023-03-16T16:29:30.200Z,4.51
2023-03-16T16:31:59.361Z,4.46
2023-03-16T16:34:32.296Z,4.41
2023-03-16T16:37:01.209Z,4.38
2023-03-16T16:39:31.089Z,4.36
2023-03-16T16:42:01.944Z,4.32
2023-03-16T16:44:34.540Z,4.29
2023-03-16T16:47:21.845Z,4.29
2023-03-16T16:49:52.168Z,4.30
2023-03-16T16:52:21.119Z,4.32
2023-03-16T16:54:49.682Z,4.33
2023-03-16T16:57:18.687Z,4.32
2023-03-16T16:59:48.155Z,4.28
2023-03-16T17:02:31.430Z,4.27
2023-03-16T17:05:01.527Z,4.24
2023-03-16T17:07:33.699Z,4.23
2023-03-16T17:10:25.544Z,4.22
2023-03-16T17:13:29.282Z,4.21
2023-03-16T17:16:10.008Z,4.17
2023-03-16T17:21:32.696Z,4.12
2023-03-16T17:24:09.700Z,4.09
2023-03-16T17:26:42.546Z,4.08
2023-03-16T17:29:25.963Z,4.07
2023-03-16T17:32:02.582Z,4.07
2023-03-16T17:34:35.624Z,4.06
2023-03-16T17:37:10.754Z,4.04
2023-03-16T17:39:39.898Z,4.03
2023-03-16T17:42:16.224Z,4.03
2023-03-16T17:44:48.140Z,4.04
2023-03-16T17:47:21.131Z,4.05
2023-03-16T17:49:52.054Z,4.06
2023-03-16T17:52:27.880Z,4.06
2023-03-16T17:55:00.711Z,4.07
2023-03-16T17:57:32.570Z,4.09
2023-03-16T18:00:01.450Z,4.10
2023-03-16T18:02:49.967Z,4.10
2023-03-16T18:05:24.247Z,4.11
2023-03-16T18:07:54.025Z,4.10
2023-03-16T18:10:42.671Z,4.09
2023-03-16T18:13:27.820Z,4.07
2023-03-16T18:15:59.846Z,4.07
2023-03-16T18:18:37.061Z,4.06
2023-03-16T18:21:09.011Z,4.04
2023-03-16T18:23:39.869Z,4.02
2023-03-16T18:26:09.282Z,4.03
2023-03-16T18:28:38.294Z,4.03
2023-03-16T18:31:07.856Z,4.03
2023-03-16T18:33:39.599Z,4.02
2023-03-16T18:36:20.184Z,4.00
2023-03-16T18:38:55.566Z,3.98
2023-03-16T18:41:33.681Z,3.97
2023-03-16T18:44:14.878Z,3.96
2023-03-16T18:46:45.838Z,3.96
2023-03-16T18:49:19.345Z,3.95
2023-03-16T18:51:50.530Z,3.93
2023-03-16T18:54:32.091Z,3.92
2023-03-16T18:57:01.518Z,3.92
2023-03-16T18:59:30.329Z,3.94
2023-03-16T19:01:58.702Z,3.94
2023-03-16T19:04:30.815Z,3.93
2023-03-16T19:06:59.500Z,3.92
2023-03-16T19:09:29.278Z,3.90
2023-03-16T19:11:59.828Z,3.88
2023-03-16T19:14:31.780Z,3.87
2023-03-16T19:17:05.342Z,3.85
2023-03-16T19:19:34.976Z,3.82
2023-03-16T19:22:10.001Z,3.80
2023-03-16T19:24:51.793Z,3.79
2023-03-16T19:27:25.910Z,3.76
2023-03-16T19:29:56.578Z,3.75
2023-03-16T19:32:25.889Z,3.74
2023-03-16T19:34:58.655Z,3.76
2023-03-16T19:37:30.173Z,3.76
2023-03-16T19:39:59.112Z,3.76
2023-03-16T19:42:29.991Z,3.76
2023-03-16T19:44:58.620Z,3.74
2023-03-16T19:47:33.335Z,3.70
2023-03-16T19:50:02.085Z,3.67
2023-03-16T19:52:32.798Z,3.67
2023-03-16T19:55:01.746Z,3.66
2023-03-16T19:57:31.758Z,3.65
2023-03-16T20:00:06.679Z,3.62
2023-03-16T20:02:40.482Z,3.58
2023-03-16T20:05:16.331Z,3.53
2023-03-16T20:07:44.629Z,3.50
2023-03-16T20:10:18.363Z,3.47
2023-03-16T20:12:58.837Z,3.46
2023-03-16T20:15:38.306Z,3.47
2023-03-16T20:18:06.912Z,3.47
2023-03-16T20:20:35.341Z,3.47
2023-03-16T20:23:14.087Z,3.48
2023-03-16T20:25:42.908Z,3.48
2023-03-16T20:28:18.918Z,3.49
2023-03-16T20:30:47.807Z,3.49
2023-03-16T20:33:38.132Z,3.49
2023-03-16T20:36:10.826Z,3.51
2023-03-16T20:38:39.723Z,3.50
2023-03-16T20:41:13.974Z,3.50
2023-03-16T20:43:43.027Z,3.48
2023-03-16T20:46:17.376Z,3.49
2023-03-16T20:48:46.285Z,3.49
2023-03-16T20:51:18.918Z,3.49
2023-03-16T20:53:51.518Z,3.48
2023-03-16T20:56:22.328Z,3.48
2023-03-16T20:58:54.777Z,3.47
2023-03-16T21:01:23.610Z,3.44
2023-03-16T21:03:55.469Z,3.43
2023-03-16T21:06:30.020Z,3.44
2023-03-16T21:09:00.125Z,3.42
2023-03-16T21:11:35.222Z,3.40
2023-03-16T21:14:05.078Z,3.40
2023-03-16T21:16:34.139Z,3.41
2023-03-16T21:19:02.783Z,3.41
2023-03-16T21:21:31.811Z,3.41
2023-03-16T21:24:04.518Z,3.42
2023-03-16T21:26:34.099Z,3.43
2023-03-16T21:29:06.746Z,3.43
2023-03-16T21:31:37.363Z,3.43
2023-03-16T21:34:06.161Z,3.42
2023-03-16T21:36:34.611Z,3.37
2023-03-16T21:39:06.536Z,3.35
2023-03-16T21:41:35.686Z,3.35
2023-03-16T21:44:07.677Z,3.35
2023-03-16T21:46:37.361Z,3.31
2023-03-16T21:49:06.586Z,3.28
2023-03-16T21:51:36.279Z,3.26
2023-03-16T21:54:07.804Z,3.23
2023-03-16T21:56:42.096Z,3.21
2023-03-16T21:59:10.942Z,3.22
2023-03-16T22:01:54.678Z,3.22
2023-03-16T22:04:29.946Z,3.20
2023-03-16T22:06:58.176Z,3.18
2023-03-16T22:09:30.421Z,3.18
2023-03-16T22:11:59.281Z,3.18
2023-03-16T22:14:31.609Z,3.17
2023-03-16T22:17:03.082Z,3.18
2023-03-16T22:19:32.148Z,3.16
2023-03-16T22:22:03.671Z,3.15
2023-03-16T22:24:36.032Z,3.16
2023-03-16T22:27:04.692Z,3.14
2023-03-16T22:29:34.927Z,3.09
2023-03-16T22:32:07.101Z,3.07
2023-03-16T22:34:45.720Z,3.08
2023-03-16T22:37:21.118Z,3.07
2023-03-16T22:39:49.872Z,3.07
2023-03-16T22:42:33.433Z,3.06
2023-03-16T22:45:02.587Z,3.06
2023-03-16T22:47:37.076Z,3.03
2023-03-16T22:50:07.461Z,3.00
2023-03-16T22:52:35.676Z,2.99
2023-03-16T22:55:04.650Z,2.98
2023-03-16T22:57:32.954Z,2.97
2023-03-16T23:00:01.339Z,2.98
2023-03-16T23:02:30.898Z,2.96
2023-03-16T23:04:59.141Z,2.95
2023-03-16T23:07:28.202Z,2.94
2023-03-16T23:09:56.925Z,2.94
2023-03-16T23:12:27.126Z,2.95
2023-03-16T23:14:56.306Z,2.94
2023-03-16T23:17:24.504Z,2.90
2023-03-16T23:19:54.808Z,2.90
2023-03-16T23:22:24.213Z,2.93
2023-03-16T23:24:52.530Z,2.96
2023-03-16T23:27:21.759Z,2.96
2023-03-16T23:29:49.991Z,2.94
2023-03-16T23:32:18.197Z,2.93
2023-03-16T23:34:46.569Z,2.89
2023-03-16T23:37:15.923Z,2.88
2023-03-16T23:39:44.844Z,2.88
2023-03-16T23:42:13.010Z,2.86
2023-03-16T23:44:42.818Z,2.85
2023-03-16T23:47:11.449Z,2.87
2023-03-16T23:49:40.122Z,2.87
2023-03-16T23:52:09.979Z,2.86
2023-03-16T23:54:38.549Z,2.82
2023-03-16T23:57:08.943Z,2.81
2023-03-16T23:59:37.258Z,2.81
